Time;durP1;ratioP1;P1;durP2;ratioP2;P2;SDS_P1;SDS_P2;PMS_P1;PMS_P2;Temp;Humidity;BMP_temperature;BMP_pressure;BME280_temperature;BME280_humidity;BME280_pressure;Samples;Min_cycle;Max_cycle;Signal;HPM_P1;HPM_P2
2021/11/02 00:00:27;;;;;;;;;;;8.20;96.90;;;;;;5047310;28;19948;-82
2021/11/02 00:02:53;;;;;;;;;;;8.20;96.90;;;;;;5054481;28;19986;-83
2021/11/02 00:05:18;;;;;;;;;;;8.10;96.90;;;;;;5047072;28;19966;-83
2021/11/02 00:07:46;;;;;;;;;;;8.10;96.90;;;;;;5029589;28;20369;-82
2021/11/02 00:10:11;;;;;;;;;;;8.20;97.20;;;;;;5050557;28;19913;-83
2021/11/02 00:12:37;;;;;;;;;;;8.10;96.90;;;;;;5039404;28;20278;-82
2021/11/02 00:15:03;;;;;;;;;;;8.10;96.90;;;;;;5046091;28;19979;-84
2021/11/02 00:17:31;;;;;;;;;;;8.10;96.80;;;;;;5028731;28;19924;-84
2021/11/02 00:19:59;;;;;;;;;;;8.10;96.80;;;;;;5054217;28;19999;-83
2021/11/02 00:22:26;;;;;;;;;;;8.00;96.80;;;;;;5046608;28;19948;-82
2021/11/02 00:27:18;;;;;;;;;;;8.00;96.80;;;;;;5047005;28;19912;-82
2021/11/02 00:29:43;;;;;;;;;;;8.00;96.80;;;;;;5054582;28;19919;-83
2021/11/02 00:32:09;;;;;;;;;;;7.90;96.70;;;;;;5053422;28;19939;-83
2021/11/02 00:34:34;;;;;;;;;;;7.90;96.70;;;;;;5046379;28;19920;-83
2021/11/02 00:37:00;;;;;;;;;;;7.90;96.70;;;;;;5045494;28;19929;-83
2021/11/02 00:39:25;;;;;;;;;;;7.90;96.70;;;;;;5046701;28;20384;-83
2021/11/02 00:41:50;;;;;;;;;;;7.80;96.70;;;;;;5038722;28;19920;-84
2021/11/02 00:44:17;;;;;;;;;;;7.80;96.70;;;;;;5035242;28;19912;-83
2021/11/02 00:46:43;;;;;;;;;;;7.70;96.60;;;;;;5035247;28;19909;-83
2021/11/02 00:49:15;;;;;;;;;;;7.70;96.60;;;;;;5035067;28;19917;-83
2021/11/02 00:51:41;;;;;;;;;;;7.70;96.60;;;;;;5017331;28;20267;-83
2021/11/02 00:54:06;;;;;;;;;;;7.80;96.70;;;;;;5035018;28;19916;-83
2021/11/02 00:56:32;;;;;;;;;;;7.70;96.90;;;;;;5034594;28;20476;-82
2021/11/02 00:58:57;;;;;;;;;;;7.70;96.60;;;;;;5034819;28;20383;-83
2021/11/02 01:01:23;;;;;;;;;;;7.70;96.60;;;;;;5035009;28;20004;-83
2021/11/02 01:03:48;;;;;;;;;;;7.70;96.60;;;;;;5017214;28;19960;-84
2021/11/02 01:06:14;;;;;;;;;;;7.60;96.50;;;;;;5034779;28;19968;-84
2021/11/02 01:08:39;;;;;;;;;;;7.60;96.50;;;;;;5034844;28;19909;-82
2021/11/02 01:11:05;;;;;;;;;;;7.60;96.50;;;;;;5034080;28;20008;-82
2021/11/02 01:13:30;;;;;;;;;;;7.60;96.50;;;;;;5034940;28;19916;-83
2021/11/02 01:15:56;;;;;;;;;;;7.60;96.50;;;;;;5034617;28;19928;-83
2021/11/02 01:18:21;;;;;;;;;;;7.50;96.80;;;;;;5034526;28;19997;-83
2021/11/02 01:20:46;;;;;;;;;;;7.50;96.60;;;;;;5034583;28;19915;-85
2021/11/02 01:23:13;;;;;;;;;;;7.50;96.60;;;;;;5034585;28;19994;-83
2021/11/02 01:25:39;;;;;;;;;;;7.40;96.60;;;;;;5034143;28;19913;-83
2021/11/02 01:28:05;;;;;;;;;;;7.50;96.70;;;;;;5034328;28;19909;-83
2021/11/02 01:30:30;;;;;;;;;;;7.50;96.70;;;;;;5034432;28;20446;-84
2021/11/02 01:32:56;;;;;;;;;;;7.50;96.70;;;;;;5034304;28;19913;-82
2021/11/02 01:35:21;;;;;;;;;;;7.50;96.70;;;;;;5034349;28;19916;-82
2021/11/02 01:37:46;;;;;;;;;;;7.50;96.70;;;;;;5034361;28;20375;-83
2021/11/02 01:40:14;;;;;;;;;;;7.60;96.70;;;;;;5034076;28;20384;-84
2021/11/02 01:42:40;;;;;;;;;;;7.50;96.70;;;;;;5034129;28;19913;-83
2021/11/02 01:45:07;;;;;;;;;;;7.50;96.70;;;;;;5034221;28;20353;-83
2021/11/02 01:47:34;;;;;;;;;;;7.50;96.60;;;;;;5034228;28;19909;-83
2021/11/02 01:50:00;;;;;;;;;;;7.50;96.70;;;;;;5016489;28;19909;-82
2021/11/02 01:52:26;;;;;;;;;;;7.50;96.70;;;;;;5034084;28;19920;-83
2021/11/02 01:54:52;;;;;;;;;;;7.50;96.70;;;;;;5033549;28;20361;-83
2021/11/02 01:57:17;;;;;;;;;;;7.50;96.70;;;;;;5033900;28;19918;-82
2021/11/02 01:59:43;;;;;;;;;;;7.50;96.70;;;;;;5034068;28;19910;-83
2021/11/02 02:02:15;;;;;;;;;;;7.50;96.60;;;;;;5034169;28;19941;-82
2021/11/02 02:04:40;;;;;;;;;;;7.50;96.60;;;;;;5034049;28;19909;-81
2021/11/02 02:07:18;;;;;;;;;;;7.50;96.60;;;;;;5033704;28;20017;-83
2021/11/02 02:09:50;;;;;;;;;;;7.40;96.60;;;;;;5032955;28;20286;-83
2021/11/02 02:12:24;;;;;;;;;;;7.40;96.50;;;;;;5033636;28;19921;-82
2021/11/02 02:14:54;;;;;;;;;;;7.40;96.50;;;;;;5015906;28;20324;-83
2021/11/02 02:17:26;;;;;;;;;;;7.40;96.60;;;;;;5033613;28;19917;-83
2021/11/02 02:19:55;;;;;;;;;;;7.30;96.60;;;;;;5033630;28;19963;-82
2021/11/02 02:22:48;;;;;;;;;;;7.30;96.50;;;;;;5033650;28;19915;-82
2021/11/02 02:25:18;;;;;;;;;;;7.30;96.50;;;;;;5033398;28;19915;-82
2021/11/02 02:27:44;;;;;;;;;;;7.30;96.50;;;;;;5033858;28;19951;-82
2021/11/02 02:30:14;;;;;;;;;;;7.30;96.50;;;;;;5033675;28;19917;-83
2021/11/02 02:32:43;;;;;;;;;;;7.20;96.50;;;;;;5033624;28;19956;-84
2021/11/02 02:35:11;;;;;;;;;;;7.20;96.50;;;;;;5016064;28;20269;-83
2021/11/02 02:37:37;;;;;;;;;;;7.20;96.40;;;;;;5033430;28;20300;-82
2021/11/02 02:40:04;;;;;;;;;;;7.10;96.40;;;;;;5034331;28;19916;-82
2021/11/02 02:42:30;;;;;;;;;;;7.10;96.40;;;;;;5033787;28;20358;-82
2021/11/02 02:44:57;;;;;;;;;;;7.10;96.40;;;;;;5034632;28;19910;-83
2021/11/02 02:47:23;;;;;;;;;;;7.00;96.40;;;;;;5033691;28;19909;-83
2021/11/02 02:49:49;;;;;;;;;;;6.90;96.40;;;;;;5033483;28;19916;-83
2021/11/02 02:52:15;;;;;;;;;;;7.00;96.50;;;;;;5033280;28;19909;-82
2021/11/02 02:54:42;;;;;;;;;;;7.00;96.50;;;;;;5033977;28;20320;-82
2021/11/02 02:57:09;;;;;;;;;;;7.00;96.50;;;;;;5033396;28;19963;-82
2021/11/02 02:59:36;;;;;;;;;;;7.00;96.50;;;;;;5015898;28;19909;-83
2021/11/02 03:02:02;;;;;;;;;;;7.00;96.50;;;;;;5033553;28;19909;-83
2021/11/02 03:04:30;;;;;;;;;;;7.00;96.50;;;;;;5016002;28;20532;-83
2021/11/02 03:06:57;;;;;;;;;;;6.90;96.50;;;;;;5033764;28;19913;-82
2021/11/02 03:09:24;;;;;;;;;;;6.90;96.40;;;;;;5034496;28;19909;-83
2021/11/02 03:11:49;;;;;;;;;;;6.90;96.50;;;;;;5035482;28;19971;-83
2021/11/02 03:14:20;;;;;;;;;;;6.90;96.50;;;;;;5034176;28;19913;-83
2021/11/02 03:44:26;;;;;;;;;;;6.90;96.70;;;;;;5036829;28;20359;-82
2021/11/02 03:49:55;;;;;;;;;;;6.80;96.70;;;;;;5036411;28;19909;-83
2021/11/02 03:54:56;;;;;;;;;;;6.80;96.70;;;;;;5036837;28;19941;-82
2021/11/02 04:00:36;;;;;;;;;;;6.80;96.80;;;;;;5022801;28;20444;-83
2021/11/02 04:23:25;;;;;;;;;;;6.90;96.70;;;;;;5035725;28;19959;-83
2021/11/02 04:33:26;;;;;;;;;;;6.80;96.60;;;;;;5035428;28;19909;-81
2021/11/02 04:36:31;;;;;;;;;;;6.70;96.60;;;;;;5035136;28;19909;-82
2021/11/02 04:45:00;;;;;;;;;;;6.80;96.60;;;;;;4974878;28;19956;-81
2021/11/02 05:08:58;;;;;;;;;;;6.70;96.60;;;;;;4974081;28;19965;-83
2021/11/02 05:47:32;;;;;;;;;;;6.90;96.50;;;;;;4954105;29;20035;-77
2021/11/02 05:50:46;;;;;;;;;;;6.90;96.50;;;;;;4954008;29;19910;-77
2021/11/02 05:56:03;;;;;;;;;;;6.80;96.50;;;;;;4953773;29;19957;-76
2021/11/02 05:58:34;;;;;;;;;;;6.80;96.50;;;;;;4953900;29;20311;-75
2021/11/02 06:03:42;;;;;;;;;;;6.80;96.50;;;;;;4953920;29;19911;-75
2021/11/02 06:06:38;;;;;;;;;;;6.80;96.40;;;;;;5029971;28;19909;-76
2021/11/02 06:10:14;;;;;;;;;;;6.80;96.50;;;;;;5033815;28;19949;-75
2021/11/02 06:28:48;;;;;;;;;;;6.70;96.40;;;;;;5033696;28;20392;-78
2021/11/02 06:31:29;;;;;;;;;;;6.70;96.40;;;;;;5033205;28;19999;-79
2021/11/02 06:51:14;;;;;;;;;;;6.70;96.60;;;;;;4908089;29;20283;-76
2021/11/02 06:53:45;;;;;;;;;;;6.80;96.60;;;;;;4921073;29;20372;-76
2021/11/02 07:18:34;;;;;;;;;;;7.00;96.50;;;;;;4938662;28;20025;-78
2021/11/02 07:21:21;;;;;;;;;;;7.00;96.50;;;;;;4986341;28;19917;-78
2021/11/02 07:23:59;;;;;;;;;;;7.10;96.50;;;;;;4999417;28;19995;-78
2021/11/02 07:29:29;;;;;;;;;;;7.20;96.50;;;;;;5036238;28;19999;-77
2021/11/02 08:46:43;;;;;;;;;;;9.10;96.40;;;;;;5051322;28;20372;-75
2021/11/02 08:49:09;;;;;;;;;;;9.10;96.40;;;;;;5049703;28;19920;-75
2021/11/02 08:51:35;;;;;;;;;;;9.10;96.40;;;;;;5049905;28;19913;-74
2021/11/02 08:54:01;;;;;;;;;;;9.10;96.40;;;;;;5053256;28;20005;-75
2021/11/02 08:56:26;;;;;;;;;;;9.10;96.50;;;;;;5048023;28;20023;-73
2021/11/02 08:58:52;;;;;;;;;;;9.00;96.50;;;;;;5053038;28;19999;-75
2021/11/02 09:01:21;;;;;;;;;;;9.00;96.50;;;;;;5052955;28;19959;-75
2021/11/02 09:03:49;;;;;;;;;;;9.10;96.60;;;;;;5053123;28;19917;-76
2021/11/02 09:06:16;;;;;;;;;;;9.10;96.50;;;;;;5045898;28;20012;-74
2021/11/02 09:08:43;;;;;;;;;;;9.10;96.60;;;;;;5045648;28;19913;-74
2021/11/02 09:11:11;;;;;;;;;;;9.10;96.60;;;;;;5052346;28;20327;-72
2021/11/02 09:13:37;;;;;;;;;;;9.20;96.60;;;;;;5039868;28;19988;-73
2021/11/02 09:16:04;;;;;;;;;;;9.20;96.50;;;;;;5051826;28;19912;-74
2021/11/02 09:18:29;;;;;;;;;;;9.30;96.50;;;;;;5045553;28;19920;-72
2021/11/02 09:20:56;;;;;;;;;;;9.30;96.50;;;;;;5044394;28;19913;-74
2021/11/02 09:23:25;;;;;;;;;;;9.30;96.50;;;;;;5052703;28;19913;-75
2021/11/02 09:25:51;;;;;;;;;;;9.30;96.50;;;;;;5052959;28;19966;-75
2021/11/02 09:28:20;;;;;;;;;;;9.30;96.50;;;;;;5045602;28;20383;-74
2021/11/02 09:30:46;;;;;;;;;;;9.30;96.50;;;;;;5053110;28;19913;-76
2021/11/02 09:33:11;;;;;;;;;;;9.30;96.50;;;;;;5052755;28;19921;-74
2021/11/02 09:35:37;;;;;;;;;;;9.30;96.50;;;;;;5045216;28;19913;-74
2021/11/02 09:38:15;;;;;;;;;;;9.40;96.60;;;;;;5044335;28;19928;-75
2021/11/02 09:40:42;;;;;;;;;;;9.40;96.50;;;;;;5047469;28;20266;-76
2021/11/02 09:43:28;;;;;;;;;;;9.40;96.50;;;;;;5051315;28;19935;-75
2021/11/02 09:46:12;;;;;;;;;;;9.50;96.50;;;;;;5052913;28;19912;-75
2021/11/02 09:48:55;;;;;;;;;;;9.50;96.50;;;;;;5048715;28;19913;-75
2021/11/02 09:51:40;;;;;;;;;;;9.60;96.50;;;;;;5052461;28;20019;-75
2021/11/02 09:54:07;;;;;;;;;;;9.60;96.50;;;;;;5044657;28;19917;-76
2021/11/02 09:56:36;;;;;;;;;;;9.60;96.50;;;;;;5052961;28;19928;-77
2021/11/02 09:59:20;;;;;;;;;;;9.60;96.50;;;;;;5052413;28;19920;-76
2021/11/02 10:01:53;;;;;;;;;;;9.60;96.50;;;;;;5041708;28;19917;-77
2021/11/02 10:04:25;;;;;;;;;;;9.60;96.50;;;;;;5051293;28;19913;-77
2021/11/02 10:06:58;;;;;;;;;;;9.60;96.50;;;;;;5052283;28;19927;-76
2021/11/02 10:09:43;;;;;;;;;;;9.60;96.50;;;;;;5043411;28;20391;-77
2021/11/02 10:12:21;;;;;;;;;;;9.60;96.50;;;;;;5014999;28;19953;-76
2021/11/02 10:14:50;;;;;;;;;;;9.50;96.60;;;;;;5012380;28;19964;-77
2021/11/02 10:17:29;;;;;;;;;;;9.50;96.70;;;;;;4995728;28;20293;-77
2021/11/02 10:20:03;;;;;;;;;;;9.60;96.70;;;;;;5012927;28;19914;-77
2021/11/02 10:22:38;;;;;;;;;;;9.60;96.70;;;;;;5004271;28;19913;-76
2021/11/02 10:25:13;;;;;;;;;;;9.60;96.70;;;;;;5013005;28;20392;-76
2021/11/02 10:27:57;;;;;;;;;;;9.60;96.70;;;;;;4997980;28;20016;-76
2021/11/02 10:30:34;;;;;;;;;;;9.70;96.70;;;;;;5004801;28;19917;-77
2021/11/02 10:33:05;;;;;;;;;;;9.80;96.70;;;;;;5016771;28;19914;-76
2021/11/02 10:35:50;;;;;;;;;;;9.80;96.60;;;;;;5013926;28;20349;-76
2021/11/02 10:38:24;;;;;;;;;;;9.80;96.70;;;;;;5013068;28;19929;-77
2021/11/02 10:40:51;;;;;;;;;;;9.80;96.80;;;;;;5016773;28;19914;-78
2021/11/02 10:43:36;;;;;;;;;;;9.90;96.80;;;;;;5001382;28;19924;-77
2021/11/02 10:46:04;;;;;;;;;;;10.00;96.80;;;;;;5016670;28;19921;-77
2021/11/02 10:48:30;;;;;;;;;;;10.10;96.80;;;;;;5016028;28;19914;-77
2021/11/02 10:51:05;;;;;;;;;;;10.10;96.80;;;;;;5008455;28;20259;-77
2021/11/02 10:53:57;;;;;;;;;;;10.10;96.80;;;;;;5015847;28;19914;-77
2021/11/02 10:56:28;;;;;;;;;;;10.20;96.80;;;;;;5000133;28;19925;-78
2021/11/02 10:58:56;;;;;;;;;;;10.20;96.80;;;;;;5016357;28;19969;-79
2021/11/02 11:01:22;;;;;;;;;;;10.20;96.80;;;;;;5004577;28;19976;-78
2021/11/02 11:03:48;;;;;;;;;;;10.30;97.10;;;;;;5009004;28;19918;-83
2021/11/02 11:06:13;;;;;;;;;;;10.20;97.00;;;;;;5015823;28;19948;-84
2021/11/02 11:08:47;;;;;;;;;;;10.20;96.70;;;;;;5014860;28;19965;-85
2021/11/02 11:11:18;;;;;;;;;;;10.20;96.80;;;;;;5007599;28;19940;-89
2021/11/02 11:14:10;;;;;;;;;;;10.30;96.80;;;;;;5049056;28;19936;-81
2021/11/02 11:16:37;;;;;;;;;;;10.40;96.80;;;;;;5034481;23;20020;-80
2021/11/02 11:19:07;;;;;;;;;;;10.30;96.70;;;;;;5028098;28;19948;-78
2021/11/02 11:21:33;;;;;;;;;;;10.30;96.70;;;;;;5018141;28;19949;-78
2021/11/02 11:24:25;;;;;;;;;;;10.30;96.70;;;;;;5034575;28;19924;-78
2021/11/02 11:26:52;;;;;;;;;;;10.40;96.80;;;;;;5018579;28;19916;-77
2021/11/02 11:29:19;;;;;;;;;;;10.40;96.70;;;;;;5027836;28;19920;-80
2021/11/02 11:31:45;;;;;;;;;;;10.50;96.70;;;;;;5035340;28;19913;-80
2021/11/02 11:34:11;;;;;;;;;;;10.50;96.60;;;;;;5033953;28;19921;-80
2021/11/02 11:36:39;;;;;;;;;;;10.50;96.90;;;;;;5027035;28;20008;-80
2021/11/02 11:39:05;;;;;;;;;;;10.60;96.70;;;;;;5035481;28;19913;-81
2021/11/02 11:41:33;;;;;;;;;;;10.70;96.70;;;;;;5034731;28;19913;-84
2021/11/02 11:44:01;;;;;;;;;;;10.80;96.70;;;;;;5026635;28;19913;-81
2021/11/02 11:46:27;;;;;;;;;;;10.80;96.60;;;;;;5035286;28;19913;-82
2021/11/02 11:48:54;;;;;;;;;;;10.90;96.60;;;;;;5032282;28;19943;-80
2021/11/02 11:51:24;;;;;;;;;;;10.90;96.60;;;;;;5030480;28;19949;-82
2021/11/02 11:53:56;;;;;;;;;;;10.90;96.50;;;;;;5033704;28;19924;-79
2021/11/02 11:56:21;;;;;;;;;;;10.80;96.50;;;;;;5021410;28;20332;-80
2021/11/02 11:58:47;;;;;;;;;;;10.70;96.50;;;;;;5024950;28;19914;-82
2021/11/02 12:01:31;;;;;;;;;;;10.70;96.60;;;;;;5035162;28;19917;-80
2021/11/02 12:04:17;;;;;;;;;;;10.70;96.60;;;;;;5031801;28;19929;-81
2021/11/02 12:06:46;;;;;;;;;;;10.70;96.60;;;;;;5022466;28;19921;-80
2021/11/02 12:09:16;;;;;;;;;;;10.70;96.60;;;;;;5030822;28;19952;-77
2021/11/02 12:11:42;;;;;;;;;;;10.70;96.60;;;;;;5031544;28;19913;-79
2021/11/02 12:14:09;;;;;;;;;;;10.70;96.60;;;;;;5033081;28;19914;-78
2021/11/02 12:16:36;;;;;;;;;;;10.80;96.60;;;;;;5027747;28;19925;-77
2021/11/02 12:19:14;;;;;;;;;;;10.90;96.60;;;;;;5033241;28;19971;-77
2021/11/02 12:21:40;;;;;;;;;;;11.00;96.60;;;;;;5033327;28;19921;-78
2021/11/02 12:24:08;;;;;;;;;;;11.10;96.50;;;;;;5033754;28;19979;-77
2021/11/02 12:26:47;;;;;;;;;;;11.10;96.40;;;;;;5034346;28;20293;-78
2021/11/02 12:29:27;;;;;;;;;;;11.10;96.40;;;;;;5023484;28;19914;-79
2021/11/02 12:31:59;;;;;;;;;;;11.10;96.40;;;;;;5030262;28;19913;-76
2021/11/02 12:34:26;;;;;;;;;;;11.10;96.40;;;;;;5034239;28;19913;-77
2021/11/02 12:36:53;;;;;;;;;;;11.00;96.40;;;;;;5033779;28;20019;-77
2021/11/02 12:39:24;;;;;;;;;;;11.00;96.40;;;;;;5030818;28;20417;-77
2021/11/02 12:41:53;;;;;;;;;;;11.00;96.50;;;;;;5021276;28;19921;-77
2021/11/02 12:44:22;;;;;;;;;;;11.00;96.40;;;;;;5019240;28;19959;-78
2021/11/02 12:46:47;;;;;;;;;;;11.00;96.40;;;;;;5033852;28;19913;-78
2021/11/02 12:49:16;;;;;;;;;;;11.00;96.40;;;;;;5025973;28;19921;-78
2021/11/02 12:51:48;;;;;;;;;;;11.00;96.40;;;;;;5033950;28;19913;-78
2021/11/02 12:54:16;;;;;;;;;;;10.90;96.40;;;;;;5030845;28;19921;-77
2021/11/02 12:56:50;;;;;;;;;;;10.90;96.50;;;;;;5029297;28;20463;-77
2021/11/02 12:59:18;;;;;;;;;;;10.90;96.50;;;;;;5033478;28;20056;-77
2021/11/02 13:01:51;;;;;;;;;;;10.90;96.50;;;;;;5025841;28;20292;-77
2021/11/02 13:04:17;;;;;;;;;;;10.90;96.50;;;;;;5032674;28;19914;-77
2021/11/02 13:06:53;;;;;;;;;;;11.00;96.60;;;;;;5033700;28;20375;-77
2021/11/02 13:09:19;;;;;;;;;;;11.00;96.60;;;;;;5025523;28;19928;-77
2021/11/02 13:11:45;;;;;;;;;;;11.00;96.50;;;;;;5032826;28;19920;-77
2021/11/02 13:14:12;;;;;;;;;;;11.00;96.50;;;;;;5032524;28;19913;-77
2021/11/02 13:16:52;;;;;;;;;;;11.10;96.50;;;;;;5021016;28;20074;-77
2021/11/02 13:19:18;;;;;;;;;;;11.10;96.50;;;;;;5031735;28;19920;-77
2021/11/02 13:21:45;;;;;;;;;;;11.20;96.40;;;;;;5033422;28;19913;-78
2021/11/02 13:24:16;;;;;;;;;;;11.20;96.40;;;;;;5032044;28;19913;-77
2021/11/02 13:26:43;;;;;;;;;;;11.20;96.40;;;;;;5027403;28;19919;-76
2021/11/02 13:29:12;;;;;;;;;;;11.30;96.40;;;;;;5032884;28;20302;-77
2021/11/02 13:31:37;;;;;;;;;;;11.40;96.40;;;;;;5028595;28;20362;-76
2021/11/02 13:34:05;;;;;;;;;;;11.50;96.40;;;;;;5028753;28;19920;-76
2021/11/02 13:36:31;;;;;;;;;;;11.60;96.30;;;;;;5024096;28;19921;-77
2021/11/02 13:39:02;;;;;;;;;;;11.60;96.30;;;;;;5026655;28;20361;-77
2021/11/02 13:41:29;;;;;;;;;;;11.60;96.30;;;;;;5029775;28;19961;-76
2021/11/02 13:44:05;;;;;;;;;;;11.70;96.30;;;;;;5026218;28;19920;-77
2021/11/02 13:46:32;;;;;;;;;;;11.70;96.30;;;;;;5024196;28;19913;-77
2021/11/02 13:48:57;;;;;;;;;;;11.80;96.30;;;;;;5033069;28;19913;-77
2021/11/02 13:51:24;;;;;;;;;;;11.70;96.20;;;;;;5032724;28;19913;-77
2021/11/02 13:53:50;;;;;;;;;;;11.70;96.10;;;;;;5025226;28;19924;-78
2021/11/02 13:56:20;;;;;;;;;;;11.60;96.10;;;;;;5032541;28;19921;-78
2021/11/02 13:58:46;;;;;;;;;;;11.50;96.10;;;;;;5032502;28;19939;-77
2021/11/02 14:01:15;;;;;;;;;;;11.40;96.20;;;;;;5027393;28;19913;-77
2021/11/02 14:03:52;;;;;;;;;;;11.30;96.20;;;;;;5023302;28;20002;-77
2021/11/02 14:06:18;;;;;;;;;;;11.30;96.20;;;;;;5031943;28;19935;-78
2021/11/02 14:08:45;;;;;;;;;;;11.20;96.20;;;;;;5032805;28;20010;-77
2021/11/02 14:11:21;;;;;;;;;;;11.20;96.20;;;;;;5032303;28;19913;-77
2021/11/02 14:13:47;;;;;;;;;;;11.10;96.20;;;;;;5028639;28;19920;-77
2021/11/02 14:16:14;;;;;;;;;;;11.00;96.30;;;;;;5032371;28;19921;-76
2021/11/02 14:18:39;;;;;;;;;;;11.00;96.30;;;;;;5032144;28;19921;-77
2021/11/02 14:21:05;;;;;;;;;;;10.90;96.30;;;;;;5024549;28;19920;-77
2021/11/02 14:23:31;;;;;;;;;;;10.90;96.30;;;;;;5030393;28;19913;-76
2021/11/02 14:26:15;;;;;;;;;;;10.80;96.40;;;;;;5027915;28;19917;-76
2021/11/02 14:28:46;;;;;;;;;;;10.80;96.40;;;;;;5023122;28;20293;-77
2021/11/02 14:31:31;;;;;;;;;;;10.80;96.40;;;;;;5031560;28;19919;-76
2021/11/02 14:33:56;;;;;;;;;;;10.80;96.40;;;;;;5013733;28;19921;-77
2021/11/02 14:36:38;;;;;;;;;;;10.70;96.40;;;;;;5028672;28;20000;-77
2021/11/02 14:39:04;;;;;;;;;;;10.70;96.40;;;;;;5018378;28;19913;-78
2021/11/02 14:41:33;;;;;;;;;;;10.60;96.40;;;;;;5031481;28;20012;-78
2021/11/02 14:44:13;;;;;;;;;;;10.50;96.40;;;;;;5021129;28;19960;-78
2021/11/02 14:46:42;;;;;;;;;;;10.40;96.30;;;;;;5029201;28;19924;-78
2021/11/02 14:49:08;;;;;;;;;;;10.30;96.40;;;;;;5023348;28;20365;-78
2021/11/02 14:51:34;;;;;;;;;;;10.20;96.40;;;;;;5032565;28;19979;-79
2021/11/02 14:54:19;;;;;;;;;;;10.20;96.30;;;;;;5031924;28;20369;-79
2021/11/02 14:56:44;;;;;;;;;;;10.10;96.30;;;;;;5022792;28;19921;-78
2021/11/02 14:59:11;;;;;;;;;;;9.90;96.30;;;;;;5031887;28;19921;-78
2021/11/02 15:01:37;;;;;;;;;;;9.90;96.40;;;;;;5031194;28;19913;-79
2021/11/02 15:04:05;;;;;;;;;;;9.70;96.20;;;;;;5024063;28;20007;-79
2021/11/02 15:06:32;;;;;;;;;;;9.60;96.40;;;;;;5031040;28;19913;-77
2021/11/02 15:08:58;;;;;;;;;;;9.50;96.50;;;;;;5031397;28;20000;-79
2021/11/02 15:11:24;;;;;;;;;;;9.50;96.60;;;;;;5023419;28;19920;-79
2021/11/02 15:13:53;;;;;;;;;;;9.50;96.70;;;;;;5031726;28;19917;-79
2021/11/02 15:16:20;;;;;;;;;;;9.50;96.70;;;;;;5029149;28;19936;-79
2021/11/02 15:18:49;;;;;;;;;;;9.40;96.60;;;;;;5029431;28;20320;-79
2021/11/02 15:21:21;;;;;;;;;;;9.40;96.70;;;;;;5035421;28;20000;-80
2021/11/02 15:23:47;;;;;;;;;;;9.40;96.60;;;;;;5030476;28;19913;-79
2021/11/02 15:26:14;;;;;;;;;;;9.40;96.70;;;;;;5032462;28;20058;-80
2021/11/02 15:28:44;;;;;;;;;;;9.40;96.70;;;;;;5028054;28;19917;-80
2021/11/02 15:31:10;;;;;;;;;;;9.50;96.70;;;;;;5027956;28;19917;-80
2021/11/02 15:33:39;;;;;;;;;;;9.50;96.70;;;;;;5034920;28;20016;-79
2021/11/02 15:36:17;;;;;;;;;;;9.60;96.60;;;;;;5034180;28;20361;-80
2021/11/02 15:38:43;;;;;;;;;;;9.60;96.60;;;;;;5032606;28;19921;-89
2021/11/02 15:41:20;;;;;;;;;;;9.60;96.50;;;;;;5023787;28;19928;-89
2021/11/02 15:43:57;;;;;;;;;;;9.60;96.50;;;;;;5034424;28;20007;-90
2021/11/02 15:46:23;;;;;;;;;;;9.60;96.50;;;;;;5025896;28;19919;-90
2021/11/02 15:48:50;;;;;;;;;;;9.60;96.50;;;;;;5030823;28;19957;-89
2021/11/02 15:51:16;;;;;;;;;;;9.70;96.40;;;;;;5031208;28;19921;-89
2021/11/02 15:53:42;;;;;;;;;;;9.70;96.40;;;;;;5021611;28;19920;-91
2021/11/02 15:56:07;;;;;;;;;;;9.60;96.40;;;;;;5028749;28;19913;-88
2021/11/02 15:58:33;;;;;;;;;;;9.60;96.40;;;;;;5022832;28;19913;-90
2021/11/02 16:00:59;;;;;;;;;;;9.60;96.40;;;;;;5034939;28;20004;-89
2021/11/02 16:03:34;;;;;;;;;;;9.60;96.40;;;;;;5023799;28;19913;-90
2021/11/02 16:06:02;;;;;;;;;;;9.70;96.40;;;;;;5025682;28;19913;-78
2021/11/02 16:08:27;;;;;;;;;;;9.70;96.40;;;;;;5027320;28;20262;-79
2021/11/02 16:10:53;;;;;;;;;;;9.70;96.50;;;;;;5033083;28;19921;-78
2021/11/02 16:13:25;;;;;;;;;;;9.70;96.50;;;;;;5034049;28;19913;-78
2021/11/02 16:15:51;;;;;;;;;;;9.70;96.40;;;;;;5034615;28;19927;-78
2021/11/02 16:18:18;;;;;;;;;;;9.70;96.40;;;;;;5032227;28;19921;-78
2021/11/02 16:20:44;;;;;;;;;;;9.70;96.40;;;;;;5019789;28;19913;-78
2021/11/02 16:23:11;;;;;;;;;;;9.60;96.50;;;;;;5034121;28;19917;-77
2021/11/02 16:25:39;;;;;;;;;;;9.60;96.50;;;;;;5028958;28;19913;-78
2021/11/02 16:28:05;;;;;;;;;;;9.60;96.50;;;;;;5030678;28;19992;-79
2021/11/02 16:30:40;;;;;;;;;;;9.60;96.60;;;;;;5033935;28;19944;-82
2021/11/02 16:33:06;;;;;;;;;;;9.60;96.40;;;;;;5027894;28;19913;-79
2021/11/02 16:35:31;;;;;;;;;;;9.60;96.50;;;;;;5032806;28;19920;-75
2021/11/02 16:37:57;;;;;;;;;;;9.60;96.80;;;;;;5034153;28;19921;-77
2021/11/02 16:40:26;;;;;;;;;;;9.60;96.50;;;;;;5033098;28;19913;-77
2021/11/02 16:42:52;;;;;;;;;;;9.60;96.60;;;;;;5021647;28;19919;-78
2021/11/02 16:45:17;;;;;;;;;;;9.50;96.50;;;;;;5027679;28;19913;-79
2021/11/02 16:47:43;;;;;;;;;;;9.50;96.60;;;;;;5032520;28;19919;-75
2021/11/02 16:50:08;;;;;;;;;;;9.50;96.60;;;;;;5034386;28;19913;-75
2021/11/02 16:52:37;;;;;;;;;;;9.50;96.60;;;;;;5026120;28;20277;-78
2021/11/02 16:55:09;;;;;;;;;;;9.50;96.60;;;;;;5032451;28;19913;-76
2021/11/02 16:57:35;;;;;;;;;;;9.50;96.60;;;;;;5033310;28;19991;-77
2021/11/02 17:00:06;;;;;;;;;;;9.50;96.60;;;;;;5033379;28;19925;-77
2021/11/02 17:02:51;;;;;;;;;;;9.40;96.60;;;;;;5034030;28;20374;-76
2021/11/02 17:05:18;;;;;;;;;;;9.40;96.60;;;;;;5026373;28;19913;-76
2021/11/02 17:07:46;;;;;;;;;;;9.40;96.60;;;;;;5033220;28;19913;-77
2021/11/02 17:10:27;;;;;;;;;;;9.40;96.60;;;;;;5032587;28;20321;-78
2021/11/02 17:12:53;;;;;;;;;;;9.40;96.60;;;;;;5033774;28;20373;-77
2021/11/02 17:15:20;;;;;;;;;;;9.40;96.50;;;;;;5025495;28;19920;-78
2021/11/02 17:17:45;;;;;;;;;;;9.30;96.50;;;;;;5027432;28;20277;-78
2021/11/02 17:20:13;;;;;;;;;;;9.30;96.50;;;;;;5030323;28;19913;-78
2021/11/02 17:22:39;;;;;;;;;;;9.30;96.60;;;;;;5033155;28;19920;-78
2021/11/02 17:25:04;;;;;;;;;;;9.30;96.60;;;;;;5032016;28;19917;-83
2021/11/02 17:27:30;;;;;;;;;;;9.20;96.50;;;;;;5032578;28;19994;-80
2021/11/02 17:29:55;;;;;;;;;;;9.20;96.60;;;;;;5033566;28;19943;-83
2021/11/02 17:32:21;;;;;;;;;;;9.20;96.60;;;;;;5024763;28;20280;-83
2021/11/02 17:34:47;;;;;;;;;;;9.20;96.60;;;;;;5025675;28;19928;-82
2021/11/02 17:37:12;;;;;;;;;;;9.20;96.50;;;;;;5032638;28;19991;-82
2021/11/02 17:39:38;;;;;;;;;;;9.10;96.50;;;;;;5032946;28;20377;-83
2021/11/02 17:42:07;;;;;;;;;;;9.10;96.50;;;;;;5032003;28;20321;-82
2021/11/02 17:44:34;;;;;;;;;;;9.00;96.50;;;;;;5031809;28;19913;-83
2021/11/02 17:47:00;;;;;;;;;;;9.00;96.50;;;;;;5025486;28;19967;-81
2021/11/02 17:49:26;;;;;;;;;;;9.00;96.60;;;;;;5025273;28;19913;-82
2021/11/02 17:51:52;;;;;;;;;;;8.90;96.60;;;;;;5032370;28;20024;-81
2021/11/02 17:54:19;;;;;;;;;;;8.90;96.60;;;;;;5031838;28;20254;-78
2021/11/02 17:56:45;;;;;;;;;;;8.90;96.60;;;;;;5024127;28;19920;-79
2021/11/02 17:59:11;;;;;;;;;;;8.90;96.50;;;;;;5024928;28;19982;-80
2021/11/02 18:01:37;;;;;;;;;;;8.90;96.60;;;;;;5032617;28;20289;-81
2021/11/02 18:04:03;;;;;;;;;;;8.90;96.60;;;;;;5032180;28;19947;-81
2021/11/02 18:06:29;;;;;;;;;;;8.80;96.60;;;;;;5027045;28;20362;-81
2021/11/02 18:08:54;;;;;;;;;;;8.80;96.60;;;;;;5030441;28;19920;-81
2021/11/02 18:11:20;;;;;;;;;;;8.80;96.70;;;;;;5032255;28;20280;-81
2021/11/02 18:13:47;;;;;;;;;;;8.80;96.60;;;;;;5032855;28;19917;-81
2021/11/02 18:16:15;;;;;;;;;;;8.80;96.60;;;;;;5032122;28;19928;-81
2021/11/02 18:18:41;;;;;;;;;;;8.80;96.60;;;;;;5025036;28;20356;-81
2021/11/02 18:21:14;;;;;;;;;;;8.80;96.60;;;;;;5032062;28;19909;-81
2021/11/02 18:23:42;;;;;;;;;;;8.90;96.60;;;;;;5032824;28;19949;-82
2021/11/02 18:26:07;;;;;;;;;;;8.90;96.60;;;;;;5024674;28;19964;-81
2021/11/02 18:28:33;;;;;;;;;;;8.90;96.50;;;;;;5022092;28;19922;-79
2021/11/02 18:30:59;;;;;;;;;;;8.90;96.50;;;;;;5025500;28;19917;-81
2021/11/02 18:33:25;;;;;;;;;;;8.80;96.40;;;;;;5021807;28;20389;-81
2021/11/02 18:35:51;;;;;;;;;;;8.90;96.50;;;;;;5029726;28;20035;-82
2021/11/02 18:38:18;;;;;;;;;;;8.90;96.50;;;;;;5029919;28;19975;-80
2021/11/02 18:40:43;;;;;;;;;;;8.80;96.50;;;;;;5019884;28;19968;-81
2021/11/02 18:43:09;;;;;;;;;;;8.90;96.40;;;;;;5021082;28;19918;-81
2021/11/02 18:45:35;;;;;;;;;;;8.80;96.40;;;;;;5028839;28;20365;-82
2021/11/02 18:48:01;;;;;;;;;;;8.80;96.40;;;;;;5022215;28;19917;-81
2021/11/02 18:50:31;;;;;;;;;;;8.80;96.40;;;;;;5029407;28;19916;-81
2021/11/02 18:52:56;;;;;;;;;;;8.80;96.40;;;;;;5013533;28;19913;-81
2021/11/02 18:55:22;;;;;;;;;;;8.80;96.40;;;;;;5027464;28;19967;-81
2021/11/02 18:57:47;;;;;;;;;;;8.80;96.40;;;;;;5027685;28;20651;-80
2021/11/02 19:00:14;;;;;;;;;;;8.70;96.40;;;;;;5027554;28;20507;-81
2021/11/02 19:02:40;;;;;;;;;;;8.70;96.50;;;;;;5034904;28;19917;-80
2021/11/02 19:05:07;;;;;;;;;;;8.70;96.50;;;;;;5035576;28;19913;-81
2021/11/02 19:07:34;;;;;;;;;;;8.70;96.50;;;;;;5028471;28;19931;-77